createdAt,value
2018-01-04T00:02:00.739Z,6.80
2018-01-04T00:04:29.351Z,6.70
2018-01-04T00:06:58.436Z,6.70
2018-01-04T00:09:25.798Z,6.70
2018-01-04T00:11:54.373Z,6.80
2018-01-04T00:14:22.827Z,6.70
2018-01-04T00:16:51.290Z,6.70
2018-01-04T00:19:18.195Z,6.70
2018-01-04T00:21:45.710Z,6.60
2018-01-04T00:24:13.371Z,6.60
2018-01-04T00:26:41.161Z,6.70
2018-01-04T00:29:08.599Z,6.70
2018-01-04T00:31:37.204Z,6.60
2018-01-04T00:34:04.425Z,6.60
2018-01-04T00:36:31.293Z,6.60
2018-01-04T00:38:58.409Z,6.50
2018-01-04T00:41:25.934Z,6.60
2018-01-04T00:43:53.876Z,6.60
2018-01-04T00:46:21.619Z,6.70
2018-01-04T00:48:48.539Z,6.60
2018-01-04T00:51:16.326Z,6.70
2018-01-04T00:53:43.659Z,6.60
2018-01-04T00:56:10.903Z,6.50
2018-01-04T00:58:38.821Z,6.40
2018-01-04T01:01:06.245Z,6.40
2018-01-04T01:03:34.173Z,6.30
2018-01-04T01:06:01.491Z,6.30
2018-01-04T01:08:29.613Z,6.40
2018-01-04T01:10:58.353Z,6.40
2018-01-04T01:13:25.743Z,6.40
2018-01-04T01:15:53.665Z,6.50
2018-01-04T01:18:20.937Z,6.50
2018-01-04T01:20:48.035Z,6.60
2018-01-04T01:23:15.229Z,6.70
2018-01-04T01:25:43.241Z,6.60
2018-01-04T01:28:11.305Z,6.60
2018-01-04T01:30:39.851Z,6.60
2018-01-04T01:33:07.549Z,6.70
2018-01-04T01:35:35.619Z,6.70
2018-01-04T01:38:04.807Z,6.70
2018-01-04T01:40:33.729Z,6.70
2018-01-04T01:43:01.570Z,6.60
2018-01-04T01:45:30.634Z,6.60
2018-01-04T01:47:58.692Z,6.50
2018-01-04T01:50:26.309Z,6.50
2018-01-04T01:52:53.570Z,6.50
2018-01-04T01:55:23.574Z,6.40
2018-01-04T01:57:51.753Z,6.60
2018-01-04T02:00:19.830Z,6.60
2018-01-04T02:02:49.210Z,6.60
2018-01-04T02:05:16.158Z,6.50
2018-01-04T02:07:43.996Z,6.50
2018-01-04T02:10:12.134Z,6.40
2018-01-04T02:12:39.994Z,6.40
2018-01-04T02:15:08.136Z,6.40
2018-01-04T02:17:35.298Z,6.30
2018-01-04T02:20:15.320Z,6.20
2018-01-04T02:22:48.141Z,6.20
2018-01-04T02:25:27.244Z,6.10
2018-01-04T02:28:07.291Z,6.20
2018-01-04T02:30:47.236Z,6.20
2018-01-04T02:33:26.992Z,6.20
2018-01-04T02:36:06.125Z,6.20
2018-01-04T02:38:45.876Z,6.20
2018-01-04T02:44:30.561Z,6.10
2018-01-04T02:46:58.214Z,6.10
2018-01-04T02:49:25.972Z,6.40
2018-01-04T02:51:55.216Z,6.30
2018-01-04T02:54:23.228Z,6.20
2018-01-04T02:56:51.347Z,6.30
2018-01-04T02:59:19.286Z,6.30
2018-01-04T03:01:46.622Z,6.30
2018-01-04T03:04:14.891Z,6.40
2018-01-04T03:06:42.169Z,6.40
2018-01-04T03:09:09.290Z,6.40
2018-01-04T03:11:37.276Z,6.50
2018-01-04T03:14:06.544Z,6.50
2018-01-04T03:16:34.073Z,6.50
2018-01-04T03:19:01.127Z,6.40
2018-01-04T03:21:29.139Z,6.40
2018-01-04T03:23:57.485Z,6.40
2018-01-04T03:29:26.961Z,6.30
2018-01-04T03:32:01.613Z,6.20
2018-01-04T03:34:34.766Z,6.30
2018-01-04T03:37:08.544Z,6.20
2018-01-04T03:39:35.484Z,6.10
2018-01-04T03:42:09.265Z,6.20
2018-01-04T03:44:43.338Z,6.10
2018-01-04T03:47:16.612Z,6.10
2018-01-04T03:49:50.993Z,6.10
2018-01-04T03:52:23.985Z,6.10
2018-01-04T03:54:57.511Z,6.10
2018-01-04T03:57:30.376Z,6.40
2018-01-04T04:00:03.267Z,6.40
2018-01-04T04:02:36.756Z,6.30
2018-01-04T04:05:10.454Z,6.40
2018-01-04T04:07:38.825Z,6.50
2018-01-04T04:10:06.189Z,6.50
2018-01-04T04:12:35.387Z,6.40
2018-01-04T04:15:03.298Z,6.40
2018-01-04T04:17:30.987Z,6.40
2018-01-04T04:19:58.293Z,6.30
2018-01-04T04:22:25.519Z,6.50
2018-01-04T04:24:53.499Z,6.40
2018-01-04T04:27:21.461Z,6.60
2018-01-04T04:29:48.701Z,6.60
2018-01-04T04:32:15.665Z,6.40
2018-01-04T04:34:43.303Z,6.40
2018-01-04T04:37:10.167Z,6.40
2018-01-04T04:39:37.104Z,6.30
2018-01-04T04:42:04.566Z,6.30
2018-01-04T04:44:31.524Z,6.20
2018-01-04T04:46:59.964Z,6.30
2018-01-04T04:49:28.065Z,6.40
2018-01-04T04:51:56.814Z,6.40
2018-01-04T04:54:24.086Z,6.40
2018-01-04T04:56:51.777Z,6.30
2018-01-04T04:59:19.686Z,6.40
2018-01-04T05:01:48.347Z,6.40
2018-01-04T05:04:15.888Z,6.50
2018-01-04T05:06:43.108Z,6.40
2018-01-04T05:09:10.070Z,6.20
2018-01-04T05:11:37.932Z,6.30
2018-01-04T05:14:04.780Z,6.40
2018-01-04T05:16:32.734Z,6.40
2018-01-04T05:19:01.222Z,6.50
2018-01-04T05:21:29.574Z,6.90
2018-01-04T05:23:57.563Z,7.00
2018-01-04T05:26:24.682Z,6.90
2018-01-04T05:28:52.113Z,7.00
2018-01-04T05:31:19.820Z,7.00
2018-01-04T05:33:47.470Z,7.00
2018-01-04T05:36:14.598Z,7.10
2018-01-04T05:38:42.058Z,7.20
2018-01-04T05:41:09.808Z,7.30
2018-01-04T05:43:37.618Z,7.40
2018-01-04T05:46:06.010Z,7.40
2018-01-04T05:48:34.958Z,7.40
2018-01-04T05:51:02.390Z,7.30
2018-01-04T05:53:29.263Z,7.40
2018-01-04T05:55:57.079Z,7.50
2018-01-04T05:58:24.062Z,7.50
2018-01-04T06:00:51.445Z,7.40
2018-01-04T06:03:18.474Z,7.50
2018-01-04T06:05:45.268Z,7.60
2018-01-04T06:08:13.411Z,7.70
2018-01-04T06:10:40.336Z,7.70
2018-01-04T06:13:08.098Z,7.60
2018-01-04T06:15:37.704Z,7.60
2018-01-04T06:18:05.486Z,7.60
2018-01-04T06:20:33.349Z,7.60
2018-01-04T06:23:06.024Z,7.60
2018-01-04T06:25:34.953Z,7.60
2018-01-04T06:28:02.177Z,7.50
2018-01-04T06:33:24.400Z,7.50
2018-01-04T06:35:53.519Z,7.60
2018-01-04T06:38:20.972Z,7.50
2018-01-04T06:40:48.635Z,7.50
2018-01-04T06:43:19.397Z,7.60
2018-01-04T06:45:47.593Z,7.70
2018-01-04T06:48:16.442Z,7.60
2018-01-04T06:50:48.717Z,7.60
2018-01-04T06:53:18.105Z,7.50
2018-01-04T06:55:45.557Z,7.40
2018-01-04T06:58:12.816Z,7.30
2018-01-04T07:00:40.848Z,7.20
2018-01-04T07:03:08.012Z,7.20
2018-01-04T07:05:34.848Z,7.20
2018-01-04T07:08:02.720Z,7.10
2018-01-04T07:10:37.329Z,7.00
2018-01-04T07:13:05.409Z,6.90
2018-01-04T07:15:32.371Z,6.90
2018-01-04T07:17:59.321Z,6.90
2018-01-04T07:20:28.204Z,7.00
2018-01-04T07:22:55.501Z,7.10
2018-01-04T07:25:23.394Z,7.00
2018-01-04T07:27:51.111Z,7.00
2018-01-04T07:30:19.035Z,7.00
2018-01-04T07:32:46.289Z,7.10
2018-01-04T07:35:13.179Z,7.00
2018-01-04T07:37:40.693Z,6.90
2018-01-04T07:40:08.244Z,7.00
2018-01-04T07:42:35.189Z,7.10
2018-01-04T07:45:02.459Z,7.10
2018-01-04T07:47:30.407Z,7.20
2018-01-04T07:49:58.279Z,7.30
2018-01-04T07:52:29.012Z,7.50
2018-01-04T07:54:56.281Z,7.40
2018-01-04T07:57:26.123Z,7.40
2018-01-04T07:59:54.130Z,7.50
2018-01-04T08:02:22.093Z,7.50
2018-01-04T08:04:48.782Z,7.50
2018-01-04T08:07:16.251Z,7.50
2018-01-04T08:09:44.753Z,7.50
2018-01-04T08:12:11.663Z,7.60
2018-01-04T08:14:38.488Z,7.70
2018-01-04T08:17:07.153Z,7.70
2018-01-04T08:19:34.485Z,7.80
2018-01-04T08:22:02.898Z,7.80
2018-01-04T08:24:31.151Z,7.90
2018-01-04T08:26:58.741Z,8.00
2018-01-04T08:29:26.890Z,8.20
2018-01-04T08:31:54.267Z,8.10
2018-01-04T08:34:21.567Z,8.10
2018-01-04T08:36:52.391Z,8.20
2018-01-04T08:39:21.496Z,8.10
2018-01-04T08:41:48.180Z,8.10
2018-01-04T08:44:15.623Z,8.30
2018-01-04T08:46:43.844Z,8.30
2018-01-04T08:49:10.946Z,8.30
2018-01-04T08:51:38.803Z,8.30
2018-01-04T08:54:13.344Z,8.30
2018-01-04T08:56:41.286Z,8.30
2018-01-04T08:59:08.797Z,8.30
2018-01-04T09:01:37.339Z,8.20
2018-01-04T09:04:04.475Z,8.10
2018-01-04T09:06:31.186Z,8.10
2018-01-04T09:08:59.078Z,8.00
2018-01-04T09:11:26.522Z,8.00
2018-01-04T09:13:53.719Z,7.80
2018-01-04T09:16:21.660Z,7.80
2018-01-04T09:18:49.858Z,7.70
2018-01-04T09:21:16.684Z,7.70
2018-01-04T09:23:43.382Z,7.70
2018-01-04T09:26:11.010Z,7.70
2018-01-04T09:28:38.821Z,7.70
2018-01-04T09:31:06.486Z,7.80
2018-01-04T09:33:34.575Z,7.80
2018-01-04T09:36:01.274Z,7.80
2018-01-04T09:38:28.054Z,7.80
2018-01-04T09:40:54.896Z,8.00
2018-01-04T09:43:22.737Z,7.90
2018-01-04T09:45:49.788Z,7.90
2018-01-04T09:48:16.839Z,7.90
2018-01-04T09:50:44.380Z,8.00
2018-01-04T09:53:12.971Z,7.90
2018-01-04T09:55:41.032Z,7.90
2018-01-04T09:58:08.085Z,7.90
2018-01-04T10:00:41.951Z,7.90
2018-01-04T10:03:08.700Z,8.00
2018-01-04T10:05:35.476Z,8.00
2018-01-04T10:08:02.262Z,8.10
2018-01-04T10:10:29.162Z,8.10
2018-01-04T10:13:01.462Z,8.10
2018-01-04T10:15:28.703Z,8.10
2018-01-04T10:17:55.504Z,8.20
2018-01-04T10:20:23.173Z,8.30
2018-01-04T10:22:50.982Z,8.20
2018-01-04T10:25:17.937Z,8.20
2018-01-04T10:27:45.168Z,8.10
2018-01-04T10:30:13.277Z,8.30
2018-01-04T10:32:39.988Z,8.30
2018-01-04T10:35:07.594Z,8.30
2018-01-04T10:37:34.698Z,8.30
2018-01-04T10:40:02.497Z,8.30
2018-01-04T10:42:29.556Z,8.20
2018-01-04T10:44:57.118Z,8.40
2018-01-04T10:47:23.740Z,8.40
2018-01-04T10:49:50.634Z,8.30
2018-01-04T10:52:18.756Z,8.40
2018-01-04T10:54:45.533Z,8.40
2018-01-04T10:57:13.004Z,8.50
2018-01-04T10:59:39.794Z,8.50
2018-01-04T11:02:06.649Z,8.50
2018-01-04T11:04:34.557Z,8.50
2018-01-04T11:07:02.106Z,8.50
2018-01-04T11:09:29.636Z,8.40
2018-01-04T11:11:56.757Z,8.40
2018-01-04T11:14:23.611Z,8.40
2018-01-04T11:16:50.863Z,8.40
2018-01-04T11:19:17.769Z,8.40
2018-01-04T11:21:45.771Z,8.40
2018-01-04T11:24:12.941Z,8.50
2018-01-04T11:26:40.586Z,8.50
2018-01-04T11:29:14.946Z,8.60
2018-01-04T11:31:45.118Z,8.60
2018-01-04T11:34:14.234Z,8.60
2018-01-04T11:36:41.316Z,8.60
2018-01-04T11:39:09.314Z,8.70
2018-01-04T11:41:37.418Z,8.70
2018-01-04T11:44:05.000Z,8.70
2018-01-04T11:46:32.574Z,8.60
2018-01-04T11:49:00.282Z,8.80
2018-01-04T11:51:28.148Z,8.80
2018-01-04T11:53:55.128Z,8.80
2018-01-04T11:56:22.572Z,8.80
2018-01-04T11:58:49.476Z,8.80
2018-01-04T12:01:16.743Z,8.80
2018-01-04T12:03:43.842Z,8.80
2018-01-04T12:06:10.638Z,9.10
2018-01-04T12:08:37.877Z,9.10
2018-01-04T12:11:04.577Z,9.20
2018-01-04T12:13:32.165Z,9.10
2018-01-04T12:15:59.123Z,9.10
2018-01-04T12:18:26.473Z,9.10
2018-01-04T12:20:53.561Z,9.10
2018-01-04T12:23:20.984Z,9.10
2018-01-04T12:25:48.128Z,9.10
2018-01-04T12:28:14.876Z,9.10
2018-01-04T12:30:41.597Z,9.20
2018-01-04T12:33:09.378Z,9.20
2018-01-04T12:35:37.845Z,9.10
2018-01-04T12:38:04.808Z,9.10
2018-01-04T12:40:31.826Z,9.10
2018-01-04T12:42:58.380Z,9.10
2018-01-04T12:45:25.211Z,9.10
2018-01-04T12:47:53.292Z,9.10
2018-01-04T12:50:19.933Z,9.10
2018-01-04T12:52:46.928Z,9.10
2018-01-04T12:55:13.811Z,9.10
2018-01-04T12:57:40.876Z,9.10
2018-01-04T13:00:07.560Z,9.20
2018-01-04T13:02:34.084Z,9.10
2018-01-04T13:05:00.708Z,9.10
2018-01-04T13:07:28.621Z,9.10
2018-01-04T13:09:55.536Z,9.20
2018-01-04T13:12:22.706Z,9.30
2018-01-04T13:14:50.183Z,9.20
2018-01-04T13:17:17.469Z,9.20
2018-01-04T13:19:45.514Z,9.20
2018-01-04T13:22:13.566Z,9.20
2018-01-04T13:33:51.183Z,9.20
2018-01-04T13:36:20.720Z,9.10
2018-01-04T13:38:53.534Z,9.10
2018-01-04T13:41:21.979Z,9.00
2018-01-04T13:43:52.551Z,9.00
2018-01-04T13:46:22.283Z,9.10
2018-01-04T13:48:54.336Z,9.10
2018-01-04T13:51:25.921Z,9.10
2018-01-04T13:56:31.276Z,9.00
2018-01-04T13:59:31.432Z,9.00
2018-01-04T14:02:00.390Z,8.90
2018-01-04T14:04:30.445Z,9.00
2018-01-04T14:07:00.572Z,9.00
2018-01-04T14:09:27.705Z,9.10
2018-01-04T14:11:55.252Z,9.10
2018-01-04T14:14:23.721Z,9.00
2018-01-04T14:16:54.788Z,9.10
2018-01-04T14:22:32.068Z,9.10
2018-01-04T14:25:07.028Z,9.00
2018-01-04T14:27:35.741Z,9.00
2018-01-04T14:30:09.099Z,9.10
2018-01-04T14:32:41.393Z,9.10
2018-01-04T14:35:15.097Z,9.10
2018-01-04T14:37:44.454Z,9.10
2018-01-04T14:40:14.374Z,9.00
2018-01-04T14:42:45.622Z,8.90
2018-01-04T14:45:25.081Z,9.00
2018-01-04T14:48:03.403Z,9.00
2018-01-04T14:50:33.351Z,9.00
2018-01-04T14:53:00.871Z,9.10
2018-01-04T14:55:27.760Z,9.00
2018-01-04T14:57:54.477Z,9.00
2018-01-04T15:00:21.813Z,9.10
2018-01-04T15:02:49.426Z,9.10
2018-01-04T15:05:16.482Z,9.10
2018-01-04T15:07:44.349Z,9.10
2018-01-04T15:10:11.076Z,9.10
2018-01-04T15:12:38.220Z,9.10
2018-01-04T15:15:05.043Z,9.10
2018-01-04T15:17:50.216Z,9.10
2018-01-04T15:20:24.826Z,9.10
2018-01-04T15:22:52.728Z,9.10
2018-01-04T15:25:21.282Z,9.30
2018-01-04T15:27:48.150Z,9.20
2018-01-04T15:30:15.464Z,9.30
2018-01-04T15:32:43.065Z,9.30
2018-01-04T15:35:16.173Z,9.30
2018-01-04T15:37:44.825Z,9.30
2018-01-04T15:40:15.801Z,9.20
2018-01-04T15:45:43.815Z,9.30
2018-01-04T15:48:10.710Z,9.30
2018-01-04T15:50:37.636Z,9.40
2018-01-04T15:53:04.725Z,9.30
2018-01-04T15:55:32.386Z,9.30
2018-01-04T15:57:59.767Z,9.30
2018-01-04T16:00:27.702Z,9.30
2018-01-04T16:02:55.410Z,9.30
2018-01-04T16:05:22.588Z,9.30
2018-01-04T16:07:50.450Z,9.30
2018-01-04T16:10:18.062Z,9.30
2018-01-04T16:12:46.582Z,9.30
2018-01-04T16:15:14.610Z,9.30
2018-01-04T16:17:41.594Z,9.40
2018-01-04T16:20:09.003Z,9.40
2018-01-04T16:22:36.752Z,9.40
2018-01-04T16:25:08.238Z,9.40
2018-01-04T16:27:35.966Z,9.40
2018-01-04T16:30:03.606Z,9.50
2018-01-04T16:32:30.698Z,9.50
2018-01-04T16:34:57.938Z,9.50
2018-01-04T16:37:24.948Z,9.50
2018-01-04T16:40:03.404Z,9.50
2018-01-04T16:42:30.367Z,9.60
2018-01-04T16:44:58.570Z,9.50
2018-01-04T16:49:58.508Z,9.60
2018-01-04T16:52:25.520Z,9.60
2018-01-04T16:54:54.410Z,9.70
2018-01-04T16:57:24.776Z,9.70
2018-01-04T16:59:52.965Z,9.70
2018-01-04T17:02:20.875Z,9.70
2018-01-04T17:04:47.849Z,9.60
2018-01-04T17:07:16.000Z,9.60
2018-01-04T17:09:43.297Z,9.60
2018-01-04T17:12:10.196Z,9.60
2018-01-04T17:14:38.067Z,9.60
2018-01-04T17:17:08.904Z,9.60
2018-01-04T17:19:37.121Z,9.60
2018-01-04T17:22:04.247Z,9.60
2018-01-04T17:24:31.917Z,9.60
2018-01-04T17:26:58.789Z,9.70
2018-01-04T17:29:27.540Z,9.60
2018-01-04T17:31:56.271Z,9.50
2018-01-04T17:34:23.561Z,9.50
2018-01-04T17:36:50.593Z,9.50
2018-01-04T17:39:17.960Z,9.40
2018-01-04T17:41:46.363Z,9.30
2018-01-04T17:44:18.064Z,9.30
2018-01-04T17:46:46.866Z,9.30
2018-01-04T17:49:14.155Z,9.20
2018-01-04T17:51:40.828Z,9.20
2018-01-04T17:54:07.751Z,9.20
2018-01-04T17:56:34.777Z,9.20
2018-01-04T17:59:02.947Z,9.20
2018-01-04T18:01:31.208Z,9.20
2018-01-04T18:03:58.559Z,9.20
2018-01-04T18:06:25.439Z,9.20
2018-01-04T18:08:52.885Z,9.20
2018-01-04T18:11:28.601Z,9.20
2018-01-04T18:14:01.647Z,9.20
2018-01-04T18:16:30.381Z,9.30
2018-01-04T18:18:57.185Z,9.30
2018-01-04T18:21:24.033Z,9.30
2018-01-04T18:23:51.127Z,9.40
2018-01-04T18:26:18.581Z,9.70
2018-01-04T18:28:46.325Z,9.70
2018-01-04T18:31:14.205Z,9.70
2018-01-04T18:33:41.365Z,9.70
2018-01-04T18:36:09.689Z,9.70
2018-01-04T18:38:37.102Z,9.70
2018-01-04T18:41:05.650Z,9.70
2018-01-04T18:43:33.402Z,9.70
2018-01-04T18:46:00.869Z,9.70
2018-01-04T18:48:28.119Z,9.70
2018-01-04T18:50:54.969Z,9.60
2018-01-04T18:53:22.201Z,9.60
2018-01-04T18:55:49.426Z,9.70
2018-01-04T18:58:16.453Z,9.80
2018-01-04T19:00:43.453Z,9.80
2018-01-04T19:03:10.987Z,9.90
2018-01-04T19:05:38.457Z,9.90
2018-01-04T19:08:06.114Z,10.00
2018-01-04T19:10:33.294Z,10.10
2018-01-04T19:13:02.178Z,10.30
2018-01-04T19:15:29.054Z,10.40
2018-01-04T19:17:56.106Z,10.40
2018-01-04T19:20:22.951Z,10.40
2018-01-04T19:22:50.542Z,10.50
2018-01-04T19:25:17.694Z,10.60
2018-01-04T19:27:44.646Z,10.50
2018-01-04T19:30:11.530Z,10.50
2018-01-04T19:32:38.533Z,10.40
2018-01-04T19:35:05.680Z,10.20
2018-01-04T19:37:33.005Z,10.10
2018-01-04T19:40:00.593Z,10.00
2018-01-04T19:42:27.541Z,10.00
2018-01-04T19:44:55.568Z,9.80
2018-01-04T19:47:23.063Z,9.60
2018-01-04T19:49:50.815Z,9.30
2018-01-04T19:52:17.578Z,9.30
2018-01-04T19:54:46.297Z,9.20
2018-01-04T19:57:13.337Z,9.20
2018-01-04T19:59:40.641Z,9.30
2018-01-04T20:02:08.027Z,9.40
2018-01-04T20:04:35.067Z,9.50
2018-01-04T20:07:01.990Z,9.60
2018-01-04T20:09:29.235Z,9.60
2018-01-04T20:11:56.108Z,9.80
2018-01-04T20:14:23.658Z,9.70
2018-01-04T20:16:50.388Z,9.70
2018-01-04T20:19:24.115Z,9.70
2018-01-04T20:21:51.324Z,9.60
2018-01-04T20:24:18.493Z,9.50
2018-01-04T20:26:45.972Z,9.30
2018-01-04T20:29:13.955Z,9.30
2018-01-04T20:31:41.088Z,9.20
2018-01-04T20:34:09.254Z,9.10
2018-01-04T20:36:36.190Z,9.20
2018-01-04T20:39:04.599Z,9.30
2018-01-04T20:41:33.612Z,9.10
2018-01-04T20:44:01.238Z,9.10
2018-01-04T20:46:29.809Z,8.90
2018-01-04T20:48:57.008Z,8.80
2018-01-04T20:51:24.046Z,8.70
2018-01-04T20:53:51.442Z,8.60
2018-01-04T20:56:19.756Z,8.90
2018-01-04T20:58:46.960Z,9.20
2018-01-04T21:01:13.900Z,9.50
2018-01-04T21:03:41.318Z,9.70
2018-01-04T21:06:08.344Z,9.70
2018-01-04T21:08:35.306Z,9.80
2018-01-04T21:11:03.310Z,9.90
2018-01-04T21:13:31.380Z,10.00
2018-01-04T21:16:04.477Z,10.00
2018-01-04T21:18:32.637Z,10.10
2018-01-04T21:21:00.180Z,10.40
2018-01-04T21:23:27.623Z,10.40
2018-01-04T21:25:54.676Z,10.30
2018-01-04T21:28:23.046Z,10.40
2018-01-04T21:30:50.265Z,10.40
2018-01-04T21:33:18.461Z,10.40
2018-01-04T21:35:45.554Z,10.40
2018-01-04T21:38:12.934Z,10.30
2018-01-04T21:40:40.562Z,10.30
2018-01-04T21:43:09.461Z,10.40
2018-01-04T21:45:36.704Z,10.30
2018-01-04T21:48:04.692Z,10.30
2018-01-04T21:50:32.350Z,10.30
2018-01-04T21:52:59.284Z,10.40
2018-01-04T21:55:28.084Z,10.40
2018-01-04T21:57:55.324Z,10.40
2018-01-04T22:00:22.977Z,10.40
2018-01-04T22:02:49.866Z,10.30
2018-01-04T22:05:17.331Z,10.10
2018-01-04T22:07:44.739Z,10.00
2018-01-04T22:10:11.790Z,10.00
2018-01-04T22:12:39.538Z,9.70
2018-01-04T22:15:06.910Z,9.70
2018-01-04T22:17:34.733Z,9.80
2018-01-04T22:20:01.834Z,9.80
2018-01-04T22:22:29.535Z,9.80
2018-01-04T22:24:58.790Z,9.90
2018-01-04T22:27:28.091Z,9.90
2018-01-04T22:29:58.923Z,9.80
2018-01-04T22:32:35.720Z,9.70
2018-01-04T22:35:03.160Z,9.60
2018-01-04T22:37:30.701Z,9.60
2018-01-04T22:39:58.748Z,9.50
2018-01-04T22:42:37.770Z,9.10
2018-01-04T22:45:05.237Z,9.10
2018-01-04T22:47:33.828Z,9.10
2018-01-04T22:50:01.013Z,9.10
2018-01-04T22:52:28.432Z,9.00
2018-01-04T22:54:57.458Z,9.00
2018-01-04T22:57:24.824Z,8.90
2018-01-04T22:59:52.781Z,8.90
2018-01-04T23:02:20.422Z,8.80
2018-01-04T23:04:48.300Z,8.80
2018-01-04T23:07:15.707Z,8.70
2018-01-04T23:09:43.441Z,8.60
2018-01-04T23:12:12.752Z,8.40
2018-01-04T23:14:41.265Z,8.30
2018-01-04T23:17:08.527Z,8.30
2018-01-04T23:19:37.235Z,8.30
2018-01-04T23:22:04.192Z,8.40
2018-01-04T23:24:31.200Z,8.40
2018-01-04T23:26:58.167Z,8.40
2018-01-04T23:29:25.230Z,8.40
2018-01-04T23:31:53.252Z,8.30
2018-01-04T23:34:21.001Z,8.30
2018-01-04T23:36:48.263Z,8.50
2018-01-04T23:39:15.221Z,8.40
2018-01-04T23:41:42.564Z,8.50
2018-01-04T23:44:10.382Z,8.30
2018-01-04T23:46:37.236Z,8.20
2018-01-04T23:49:05.294Z,8.10
2018-01-04T23:51:34.965Z,8.20
2018-01-04T23:54:01.893Z,8.30
2018-01-04T23:56:28.719Z,8.40
2018-01-04T23:58:55.694Z,8.30
